Lower Kalskag, AK (99626)

1:17 PM AKST on February 05, 2016 (GMT -0900)
Kalskag AP, Kalskag, AK | | Change Station
CLOSE
Current Station
Airport
Location: Kalskag AP, Kalskag, AK,
Elevation: 56 ft
Nearby Weather Stations

Elev 56 ft 61.54 °N, 160.34 °W | Updated 21 minutes ago

Mostly Cloudy
Mostly Cloudy
25 °F
Feels Like 13 °F
N
14
Wind Variable Wind from East
Gusts 21 mph

Today
High -- | Low -- °F
--% Chance of Precip.
Yesterday
High -- | Low -- °F
Precip. -- in
Pressure 28.99 in
Visibility 10.0 miles
Clouds Mostly Cloudy 6000 ft
Windchill 13 °F
Dew Point 17 °F
Humidity 71%
Rainfall 0.00 in
Snow Depth Not available.
9:53 AM 5:57 PM
Waning Crescent, 9% visible
METAR PALG 052156Z AUTO 10012G18KT 10SM BKN060 M04/M08 A2898 RMK AO2 TSNO T10381083 SLP816 $
Pressure 28.99 in
Visibility 10.0 miles
Clouds Mostly Cloudy 6000 ft
Windchill 13 °F
Dew Point 17 °F
Humidity 71%
Rainfall 0.00 in
Snow Depth Not available.
9:53 AM 5:57 PM
Waning Crescent, 9% visible
METAR PALG 052156Z AUTO 10012G18KT 10SM BKN060 M04/M08 A2898 RMK AO2 TSNO T10381083 SLP816 $

10-Day Weather Forecast

Almanac

Astronomy

Feb. 05, 2016 Rise Set
Actual Time
Civil Twilight
Nautical Twilight
Astronomical Twilight
Moon
Length of Visible Light
Length of Day
Tomorrow will be .
, % of the Moon is Illuminated

Today's Extremes

State Highs State Lows

Community

WunderPhotos

Upload Photos

1,890,876 photos uploaded!

WunderBlog® & News

Nearby

Air Quality

  Air Quality AQ Index Pollutant
Not available.

Snow Depth

Station Depth Elevation

Earthquake Activity

City Distance Mag. Time & Date
Minimum magnitude displayed is 2.5.

Coastal Water Temperatures

Place Temperature

Stations

Nearby Weather Stations

Station Location Temp. Windchill Dew Point Humidity Wind Precip. Elev Updated Type
                   

Watches & Warnings

There are currently no watches in effect.